createdAt,value
2019-05-23T00:01:11.388Z,11.20
2019-05-23T00:04:09.993Z,11.30
2019-05-23T00:07:00.653Z,11.20
2019-05-23T00:09:50.424Z,11.30
2019-05-23T00:12:42.052Z,11.20
2019-05-23T00:15:25.739Z,11.20
2019-05-23T00:17:57.266Z,11.20
2019-05-23T00:20:29.626Z,11.20
2019-05-23T00:23:01.505Z,11.20
2019-05-23T00:25:33.318Z,11.20
2019-05-23T00:28:06.043Z,11.20
2019-05-23T00:30:57.314Z,11.20
2019-05-23T00:33:31.012Z,11.10
2019-05-23T00:36:02.207Z,11.10
2019-05-23T00:38:35.080Z,11.10
2019-05-23T00:41:07.214Z,11.10
2019-05-23T00:43:37.874Z,11.20
2019-05-23T00:46:09.850Z,11.20
2019-05-23T00:48:42.762Z,11.10
2019-05-23T00:51:15.876Z,11.20
2019-05-23T00:53:46.688Z,11.10
2019-05-23T00:56:18.671Z,11.10
2019-05-23T00:58:50.382Z,11.20
2019-05-23T01:01:22.671Z,11.10
2019-05-23T01:03:54.798Z,11.10
2019-05-23T01:06:28.186Z,11.10
2019-05-23T01:08:59.975Z,11.10
2019-05-23T01:11:30.776Z,11.10
2019-05-23T01:14:01.637Z,11.10
2019-05-23T01:16:33.965Z,11.10
2019-05-23T01:19:05.217Z,11.10
2019-05-23T01:21:43.941Z,11.10
2019-05-23T01:24:29.541Z,11.10
2019-05-23T01:27:00.116Z,11.10
2019-05-23T01:29:37.787Z,11.10
2019-05-23T01:32:13.615Z,11.10
2019-05-23T01:34:44.826Z,11.10
2019-05-23T01:37:15.930Z,11.10
2019-05-23T01:39:46.747Z,11.10
2019-05-23T01:42:17.612Z,11.10
2019-05-23T01:44:50.292Z,11.10
2019-05-23T01:47:21.605Z,11.10
2019-05-23T01:49:53.221Z,11.00
2019-05-23T01:52:23.801Z,11.00
2019-05-23T01:54:54.909Z,11.00
2019-05-23T01:57:26.518Z,11.00
2019-05-23T02:00:08.930Z,11.00
2019-05-23T02:02:30.922Z,11.00
2019-05-23T02:05:02.806Z,11.00
2019-05-23T02:07:35.035Z,11.00
2019-05-23T02:10:06.491Z,11.00
2019-05-23T02:12:40.354Z,10.90
2019-05-23T02:15:12.020Z,11.00
2019-05-23T02:17:44.088Z,10.90
2019-05-23T02:20:16.759Z,10.90
2019-05-23T02:22:48.518Z,10.90
2019-05-23T02:25:21.537Z,10.90
2019-05-23T02:27:53.555Z,10.90
2019-05-23T02:30:35.823Z,10.90
2019-05-23T02:32:58.943Z,10.90
2019-05-23T02:35:29.860Z,10.90
2019-05-23T02:38:31.567Z,10.90
2019-05-23T02:41:24.130Z,10.90
2019-05-23T02:44:00.118Z,10.90
2019-05-23T02:46:37.242Z,10.80
2019-05-23T02:49:11.492Z,10.80
2019-05-23T02:51:43.698Z,10.80
2019-05-23T02:54:16.201Z,10.80
2019-05-23T02:56:47.937Z,10.80
2019-05-23T02:59:43.328Z,10.70
2019-05-23T03:02:57.920Z,10.70
2019-05-23T03:05:29.018Z,10.70
2019-05-23T03:08:09.834Z,10.70
2019-05-23T03:11:00.917Z,10.70
2019-05-23T03:13:34.433Z,10.70
2019-05-23T03:16:06.135Z,10.70
2019-05-23T03:18:42.854Z,10.70
2019-05-23T03:21:15.782Z,10.60
2019-05-23T03:23:49.469Z,10.70
2019-05-23T03:26:54.643Z,10.60
2019-05-23T03:29:25.203Z,10.70
2019-05-23T03:32:18.618Z,10.60
2019-05-23T03:34:53.271Z,10.70
2019-05-23T03:37:24.328Z,10.70
2019-05-23T03:39:55.291Z,10.70
2019-05-23T03:42:27.550Z,10.70
2019-05-23T03:44:58.091Z,10.70
2019-05-23T03:47:31.206Z,10.70
2019-05-23T03:50:02.881Z,10.70
2019-05-23T03:52:33.452Z,10.70
2019-05-23T03:55:06.851Z,10.60
2019-05-23T03:57:39.392Z,10.60
2019-05-23T04:00:13.997Z,10.60
2019-05-23T04:02:48.672Z,10.60
2019-05-23T04:05:20.162Z,10.60
2019-05-23T04:07:52.599Z,10.60
2019-05-23T04:10:23.854Z,10.50
2019-05-23T04:12:55.345Z,10.50
2019-05-23T04:15:29.799Z,10.50
2019-05-23T04:18:02.842Z,10.50
2019-05-23T04:20:36.817Z,10.50
2019-05-23T04:23:11.447Z,10.50
2019-05-23T04:25:49.207Z,10.50
2019-05-23T04:28:21.725Z,10.50
2019-05-23T04:30:56.995Z,10.50
2019-05-23T04:33:27.694Z,10.50
2019-05-23T04:36:00.301Z,10.50
2019-05-23T04:38:36.204Z,10.40
2019-05-23T04:41:05.235Z,10.50
2019-05-23T04:43:35.806Z,10.50
2019-05-23T04:46:07.392Z,10.40
2019-05-23T04:48:38.524Z,10.50
2019-05-23T04:51:09.285Z,10.40
2019-05-23T04:53:43.747Z,10.40
2019-05-23T04:56:14.767Z,10.40
2019-05-23T04:58:45.410Z,10.40
2019-05-23T05:01:17.055Z,10.40
2019-05-23T05:03:49.040Z,10.40
2019-05-23T05:06:20.582Z,10.40
2019-05-23T05:08:54.490Z,10.40
2019-05-23T05:11:30.238Z,10.40
2019-05-23T05:13:58.734Z,10.40
2019-05-23T05:16:29.476Z,10.40
2019-05-23T05:18:59.956Z,10.40
2019-05-23T05:21:30.421Z,10.40
2019-05-23T05:24:00.986Z,10.40
2019-05-23T05:26:31.717Z,10.50
2019-05-23T05:29:02.658Z,10.50
2019-05-23T05:31:33.168Z,10.40
2019-05-23T05:34:04.043Z,10.40
2019-05-23T05:36:34.965Z,10.40
2019-05-23T05:39:07.695Z,10.40
2019-05-23T05:41:38.732Z,10.40
2019-05-23T05:44:11.822Z,10.50
2019-05-23T05:46:42.943Z,10.50
2019-05-23T05:49:14.284Z,10.50
2019-05-23T05:51:45.227Z,10.50
2019-05-23T05:54:16.348Z,10.50
2019-05-23T05:56:46.863Z,10.50
2019-05-23T05:59:17.518Z,10.60
2019-05-23T06:01:48.499Z,10.60
2019-05-23T06:04:19.403Z,10.60
2019-05-23T06:07:08.220Z,10.60
2019-05-23T06:09:39.109Z,10.60
2019-05-23T06:12:10.472Z,10.60
2019-05-23T06:14:41.155Z,10.70
2019-05-23T06:17:16.014Z,10.70
2019-05-23T06:19:46.704Z,10.70
2019-05-23T06:22:20.755Z,10.70
2019-05-23T06:24:54.222Z,10.70
2019-05-23T06:27:23.733Z,10.70
2019-05-23T06:29:55.602Z,10.80
2019-05-23T06:32:27.728Z,10.70
2019-05-23T06:34:58.453Z,10.80
2019-05-23T06:37:34.045Z,10.70
2019-05-23T06:40:02.353Z,10.80
2019-05-23T06:42:33.145Z,10.70
2019-05-23T06:45:05.101Z,10.70
2019-05-23T06:47:35.837Z,10.80
2019-05-23T06:50:10.421Z,10.80
2019-05-23T06:52:40.991Z,10.80
2019-05-23T06:55:11.843Z,10.80
2019-05-23T06:57:42.475Z,10.70
2019-05-23T07:00:16.821Z,10.60
2019-05-23T07:02:47.949Z,10.60
2019-05-23T07:05:21.877Z,10.60
2019-05-23T07:07:52.403Z,10.60
2019-05-23T07:10:24.622Z,10.50
2019-05-23T07:12:55.133Z,10.60
2019-05-23T07:15:26.997Z,10.60
2019-05-23T07:17:59.746Z,10.60
2019-05-23T07:20:30.531Z,10.60
2019-05-23T07:23:01.498Z,10.60
2019-05-23T07:25:32.092Z,10.70
2019-05-23T07:28:02.739Z,10.70
2019-05-23T07:30:33.353Z,10.80
2019-05-23T07:33:04.479Z,10.70
2019-05-23T07:35:35.103Z,10.80
2019-05-23T07:38:05.666Z,10.80
2019-05-23T07:40:36.448Z,10.80
2019-05-23T07:43:07.566Z,10.80
2019-05-23T07:45:43.978Z,10.80
2019-05-23T07:48:15.471Z,10.80
2019-05-23T07:50:46.146Z,10.80
2019-05-23T07:53:23.325Z,10.80
2019-05-23T07:55:54.225Z,10.80
2019-05-23T07:58:24.837Z,10.90
2019-05-23T08:00:59.174Z,10.90
2019-05-23T08:03:32.240Z,10.80
2019-05-23T08:06:03.072Z,10.90
2019-05-23T08:08:34.087Z,11.00
2019-05-23T08:11:04.703Z,10.90
2019-05-23T08:13:35.497Z,10.90
2019-05-23T08:16:06.429Z,10.80
2019-05-23T08:18:37.013Z,10.80
2019-05-23T08:21:07.725Z,10.80
2019-05-23T08:23:38.304Z,10.70
2019-05-23T08:26:09.480Z,10.70
2019-05-23T08:28:56.655Z,10.70
2019-05-23T08:31:12.551Z,10.80
2019-05-23T08:33:43.164Z,10.90
2019-05-23T08:36:14.480Z,10.90
2019-05-23T08:38:45.176Z,10.90
2019-05-23T08:41:16.460Z,10.90
2019-05-23T08:43:47.172Z,10.90
2019-05-23T08:46:19.211Z,10.80
2019-05-23T08:48:49.865Z,10.90
2019-05-23T08:51:20.512Z,10.80
2019-05-23T08:53:52.286Z,10.80
2019-05-23T08:56:22.990Z,10.80
2019-05-23T08:58:53.480Z,10.80
2019-05-23T09:01:24.286Z,10.70
2019-05-23T09:03:54.856Z,10.60
2019-05-23T09:06:25.590Z,10.70
2019-05-23T09:08:56.655Z,10.70
2019-05-23T09:11:27.437Z,10.60
2019-05-23T09:13:58.231Z,10.70
2019-05-23T09:16:29.015Z,10.70
2019-05-23T09:18:59.787Z,10.70
2019-05-23T09:21:30.268Z,10.70
2019-05-23T09:24:00.797Z,10.70
2019-05-23T09:26:31.447Z,10.80
2019-05-23T09:29:03.046Z,10.70
2019-05-23T09:31:33.860Z,10.80
2019-05-23T09:34:04.708Z,10.70
2019-05-23T09:36:35.755Z,10.70
2019-05-23T09:39:09.059Z,10.70
2019-05-23T09:41:41.101Z,10.70
2019-05-23T09:44:11.664Z,10.70
2019-05-23T09:46:43.208Z,10.70
2019-05-23T09:49:14.169Z,10.60
2019-05-23T09:51:45.442Z,10.70
2019-05-23T09:54:16.903Z,10.70
2019-05-23T09:56:47.498Z,10.70
2019-05-23T09:59:18.090Z,10.70
2019-05-23T10:01:48.864Z,10.70
2019-05-23T10:04:20.494Z,10.70
2019-05-23T10:06:50.975Z,10.70
2019-05-23T10:09:21.542Z,10.70
2019-05-23T10:11:52.949Z,10.80
2019-05-23T10:14:26.885Z,10.70
2019-05-23T10:16:57.541Z,10.60
2019-05-23T10:19:28.101Z,10.60
2019-05-23T10:21:59.696Z,10.60
2019-05-23T10:24:30.241Z,10.60
2019-05-23T10:27:00.844Z,10.60
2019-05-23T10:29:31.455Z,10.60
2019-05-23T10:32:02.154Z,10.70
2019-05-23T10:34:32.751Z,10.70
2019-05-23T10:37:03.865Z,10.70
2019-05-23T10:39:35.581Z,10.70
2019-05-23T10:42:06.469Z,10.80
2019-05-23T10:44:39.881Z,10.80
2019-05-23T10:47:10.504Z,10.80
2019-05-23T10:49:41.164Z,10.70
2019-05-23T10:52:11.831Z,10.70
2019-05-23T10:54:42.452Z,10.60
2019-05-23T10:57:13.185Z,10.60
2019-05-23T10:59:43.698Z,10.60
2019-05-23T11:02:16.437Z,10.60
2019-05-23T11:04:47.061Z,10.60
2019-05-23T11:07:17.977Z,10.60
2019-05-23T11:09:49.285Z,10.60
2019-05-23T11:12:19.778Z,10.50
2019-05-23T11:14:50.884Z,10.60
2019-05-23T11:17:22.257Z,10.50
2019-05-23T11:19:53.010Z,10.50
2019-05-23T11:22:24.594Z,10.50
2019-05-23T11:24:55.471Z,10.50
2019-05-23T11:27:26.776Z,10.50
2019-05-23T11:29:57.399Z,10.60
2019-05-23T11:32:30.658Z,10.60
2019-05-23T11:35:01.366Z,10.60
2019-05-23T11:37:32.053Z,10.70
2019-05-23T11:40:02.718Z,10.60
2019-05-23T11:42:33.276Z,10.60
2019-05-23T11:45:04.206Z,10.60
2019-05-23T11:47:34.944Z,10.70
2019-05-23T11:50:06.855Z,10.80
2019-05-23T11:52:37.694Z,10.90
2019-05-23T11:55:08.544Z,10.90
2019-05-23T11:57:39.551Z,10.90
2019-05-23T12:00:12.382Z,10.90
2019-05-23T12:02:44.960Z,11.00
2019-05-23T12:05:22.139Z,11.00
2019-05-23T12:07:52.814Z,11.00
2019-05-23T12:10:23.401Z,11.00
2019-05-23T12:12:53.890Z,11.00
2019-05-23T12:15:28.508Z,11.00
2019-05-23T12:17:59.543Z,11.20
2019-05-23T12:20:30.551Z,11.20
2019-05-23T12:23:01.206Z,11.20
2019-05-23T12:25:31.971Z,11.10
2019-05-23T12:28:02.997Z,10.90
2019-05-23T12:30:33.646Z,10.90
2019-05-23T12:33:04.491Z,11.00
2019-05-23T12:35:36.577Z,11.10
2019-05-23T12:38:07.453Z,11.00
2019-05-23T12:40:38.031Z,11.00
2019-05-23T12:43:08.616Z,11.10
2019-05-23T12:45:39.110Z,11.10
2019-05-23T12:48:16.527Z,11.00
2019-05-23T12:50:47.154Z,10.90
2019-05-23T12:53:17.799Z,10.90
2019-05-23T12:55:48.522Z,10.90
2019-05-23T12:58:20.069Z,10.90
2019-05-23T13:00:54.109Z,10.80
2019-05-23T13:03:24.972Z,10.70
2019-05-23T13:05:55.546Z,10.70
2019-05-23T13:08:26.241Z,10.70
2019-05-23T13:10:56.855Z,10.70
2019-05-23T13:13:27.986Z,10.80
2019-05-23T13:15:58.606Z,10.90
2019-05-23T13:18:29.268Z,10.90
2019-05-23T13:20:59.996Z,10.90
2019-05-23T13:23:31.114Z,11.00
2019-05-23T13:26:01.879Z,11.00
2019-05-23T13:28:32.586Z,11.00
2019-05-23T13:31:03.458Z,11.10
2019-05-23T13:33:34.029Z,11.00
2019-05-23T13:36:05.195Z,11.10
2019-05-23T13:38:36.174Z,11.10
2019-05-23T13:41:06.949Z,11.20
2019-05-23T13:43:38.090Z,11.20
2019-05-23T13:46:09.192Z,11.20
2019-05-23T13:48:39.883Z,11.30
2019-05-23T13:51:10.469Z,11.30
2019-05-23T13:53:41.521Z,11.40
2019-05-23T13:56:12.169Z,11.40
2019-05-23T13:58:42.909Z,11.50
2019-05-23T14:01:13.606Z,11.60
2019-05-23T14:03:44.475Z,11.60
2019-05-23T14:06:15.086Z,11.70
2019-05-23T14:08:45.586Z,11.60
2019-05-23T14:11:16.474Z,11.70
2019-05-23T14:13:47.813Z,11.80
2019-05-23T14:16:18.582Z,11.70
2019-05-23T14:18:49.471Z,11.70
2019-05-23T14:21:20.325Z,11.80
2019-05-23T14:23:50.883Z,11.80
2019-05-23T14:26:21.650Z,11.80
2019-05-23T14:28:52.237Z,11.80
2019-05-23T14:31:23.787Z,11.80
2019-05-23T14:34:12.237Z,11.90
2019-05-23T14:37:00.924Z,11.90
2019-05-23T14:39:44.181Z,12.00
2019-05-23T14:42:45.747Z,11.90
2019-05-23T14:45:36.039Z,12.00
2019-05-23T14:48:32.326Z,12.00
2019-05-23T14:51:28.607Z,12.00
2019-05-23T14:54:05.279Z,12.00
2019-05-23T14:56:36.993Z,12.00
2019-05-23T14:59:07.564Z,12.00
2019-05-23T15:01:38.740Z,12.00
2019-05-23T15:04:09.219Z,12.00
2019-05-23T15:06:39.779Z,12.00
2019-05-23T15:09:10.765Z,12.00
2019-05-23T15:11:41.390Z,12.00
2019-05-23T15:14:11.867Z,12.10
2019-05-23T15:16:43.846Z,12.20
2019-05-23T15:19:14.431Z,12.20
2019-05-23T15:21:45.006Z,12.20
2019-05-23T15:24:16.318Z,12.20
2019-05-23T15:26:49.146Z,12.20
2019-05-23T15:29:20.131Z,12.20
2019-05-23T15:32:01.781Z,12.20
2019-05-23T15:34:23.808Z,12.20
2019-05-23T15:36:55.478Z,12.20
2019-05-23T15:39:28.716Z,12.20
2019-05-23T15:41:59.279Z,12.20
2019-05-23T15:44:31.078Z,12.20
2019-05-23T15:47:03.200Z,12.20
2019-05-23T15:49:34.062Z,12.20
2019-05-23T15:52:15.012Z,12.20
2019-05-23T15:55:00.504Z,12.30
2019-05-23T15:57:50.059Z,12.30
2019-05-23T16:00:42.763Z,12.30
2019-05-23T16:03:38.006Z,12.30
2019-05-23T16:06:11.416Z,12.40
2019-05-23T16:08:42.734Z,12.30
2019-05-23T16:11:17.407Z,12.30
2019-05-23T16:13:46.553Z,12.30
2019-05-23T16:16:18.626Z,12.30
2019-05-23T16:18:49.921Z,12.30
2019-05-23T16:21:21.651Z,12.30
2019-05-23T16:23:54.545Z,12.30
2019-05-23T16:26:25.254Z,12.30
2019-05-23T16:28:55.962Z,12.30
2019-05-23T16:31:27.526Z,12.30
2019-05-23T16:33:59.524Z,12.30
2019-05-23T16:36:30.264Z,12.30
2019-05-23T16:39:00.788Z,12.30
2019-05-23T16:41:33.076Z,12.30
2019-05-23T16:44:03.887Z,12.40
2019-05-23T16:46:34.542Z,12.30
2019-05-23T16:49:05.480Z,12.40
2019-05-23T16:51:36.334Z,12.40
2019-05-23T16:54:07.044Z,12.40
2019-05-23T16:56:50.613Z,12.40
2019-05-23T16:59:34.192Z,12.40
2019-05-23T17:02:14.649Z,12.40
2019-05-23T17:05:08.493Z,12.40
2019-05-23T17:07:39.669Z,12.40
2019-05-23T17:10:24.546Z,12.50
2019-05-23T17:13:07.336Z,12.50
2019-05-23T17:15:56.629Z,12.50
2019-05-23T17:18:44.800Z,12.50
2019-05-23T17:21:34.670Z,12.50
2019-05-23T17:24:34.724Z,12.40
2019-05-23T17:27:10.973Z,12.40
2019-05-23T17:29:54.419Z,12.50
2019-05-23T17:32:28.892Z,12.50
2019-05-23T17:35:00.959Z,12.50
2019-05-23T17:37:33.142Z,12.50
2019-05-23T17:40:23.227Z,12.50
2019-05-23T17:42:39.671Z,12.50
2019-05-23T17:45:14.062Z,12.50
2019-05-23T17:47:43.230Z,12.50
2019-05-23T17:50:13.925Z,12.50
2019-05-23T17:52:44.509Z,12.50
2019-05-23T17:55:15.940Z,12.50
2019-05-23T17:57:46.593Z,12.50
2019-05-23T18:00:21.995Z,12.50
2019-05-23T18:02:54.456Z,12.50
2019-05-23T18:05:27.045Z,12.50
2019-05-23T18:07:57.734Z,12.50
2019-05-23T18:10:44.136Z,12.50
2019-05-23T18:13:02.069Z,12.50
2019-05-23T18:15:34.804Z,12.50
2019-05-23T18:18:06.700Z,12.50
2019-05-23T18:20:38.026Z,12.50
2019-05-23T18:23:09.186Z,12.50
2019-05-23T18:25:41.425Z,12.50
2019-05-23T18:28:13.932Z,12.50
2019-05-23T18:30:56.895Z,12.50
2019-05-23T18:33:28.753Z,12.50
2019-05-23T18:36:01.115Z,12.50
2019-05-23T18:38:31.990Z,12.40
2019-05-23T18:41:08.780Z,12.50
2019-05-23T18:43:55.141Z,12.40
2019-05-23T18:46:30.772Z,12.40
2019-05-23T18:49:01.944Z,12.40
2019-05-23T18:51:33.280Z,12.40
2019-05-23T18:54:04.135Z,12.30
2019-05-23T18:56:52.872Z,12.30
2019-05-23T18:59:23.494Z,12.20
2019-05-23T19:01:54.362Z,12.10
2019-05-23T19:04:42.962Z,12.10
2019-05-23T19:07:14.241Z,12.10
2019-05-23T19:10:02.431Z,12.10
2019-05-23T19:12:50.772Z,12.10
2019-05-23T19:15:22.822Z,12.10
2019-05-23T19:18:11.343Z,12.10
2019-05-23T19:20:42.101Z,12.10
2019-05-23T19:23:14.212Z,12.10
2019-05-23T19:26:07.132Z,12.10
2019-05-23T19:28:56.157Z,12.20
2019-05-23T19:31:45.701Z,12.20
2019-05-23T19:34:18.037Z,12.20
2019-05-23T19:36:49.486Z,12.20
2019-05-23T19:39:23.905Z,12.20
2019-05-23T19:41:56.537Z,12.20
2019-05-23T19:44:44.933Z,12.20
2019-05-23T19:47:16.003Z,12.20
2019-05-23T19:49:46.685Z,12.20
2019-05-23T19:52:52.665Z,12.10
2019-05-23T19:55:23.431Z,12.20
2019-05-23T19:58:12.538Z,12.10
2019-05-23T20:00:44.202Z,12.10
2019-05-23T20:03:15.786Z,12.10
2019-05-23T20:05:48.151Z,12.10
2019-05-23T20:08:19.140Z,12.10
2019-05-23T20:11:25.495Z,12.10
2019-05-23T20:13:56.390Z,12.10
2019-05-23T20:16:28.396Z,12.10
2019-05-23T20:18:59.098Z,12.10
2019-05-23T20:21:30.119Z,12.10
2019-05-23T20:24:00.701Z,12.10
2019-05-23T20:26:31.302Z,12.10
2019-05-23T20:29:05.177Z,12.10
2019-05-23T20:31:36.610Z,12.10
2019-05-23T20:34:25.281Z,12.10
2019-05-23T20:36:55.836Z,12.00
2019-05-23T20:39:26.564Z,12.00
2019-05-23T20:42:10.304Z,12.00
2019-05-23T20:44:29.748Z,12.00
2019-05-23T20:47:02.623Z,12.00
2019-05-23T20:49:33.222Z,12.00
2019-05-23T20:52:21.459Z,11.90
2019-05-23T20:54:52.097Z,12.00
2019-05-23T20:57:22.679Z,11.90
2019-05-23T20:59:53.186Z,11.90
2019-05-23T21:02:24.045Z,11.90
2019-05-23T21:04:54.745Z,11.90
2019-05-23T21:07:43.471Z,11.90
2019-05-23T21:10:48.460Z,11.80
2019-05-23T21:13:19.329Z,11.80
2019-05-23T21:16:08.059Z,11.80
2019-05-23T21:18:38.800Z,11.80
2019-05-23T21:21:27.239Z,11.80
2019-05-23T21:23:57.730Z,11.80
2019-05-23T21:26:28.285Z,11.80
2019-05-23T21:28:59.007Z,11.80
2019-05-23T21:31:32.148Z,11.80
2019-05-23T21:34:02.766Z,11.80
2019-05-23T21:36:51.307Z,11.80
2019-05-23T21:39:24.464Z,11.80
2019-05-23T21:41:56.065Z,11.80
2019-05-23T21:44:26.520Z,11.80
2019-05-23T21:46:57.155Z,11.80
2019-05-23T21:49:27.739Z,11.80
2019-05-23T21:51:58.505Z,11.80
2019-05-23T21:54:29.105Z,11.80
2019-05-23T21:57:00.034Z,11.80
2019-05-23T21:59:48.338Z,11.70
2019-05-23T22:02:31.292Z,11.80
2019-05-23T22:05:12.742Z,11.70
2019-05-23T22:07:43.860Z,11.80
2019-05-23T22:10:14.431Z,11.80
2019-05-23T22:12:45.273Z,11.80
2019-05-23T22:15:19.994Z,11.80
2019-05-23T22:17:51.073Z,11.70
2019-05-23T22:20:21.555Z,11.70
2019-05-23T22:22:52.190Z,11.60
2019-05-23T22:25:33.190Z,11.60
2019-05-23T22:28:03.777Z,11.50
2019-05-23T22:30:35.547Z,11.50
2019-05-23T22:33:07.426Z,11.50
2019-05-23T22:35:37.883Z,11.50
2019-05-23T22:38:08.873Z,11.50
2019-05-23T22:40:57.167Z,11.50
2019-05-23T22:43:45.660Z,11.50
2019-05-23T22:46:34.053Z,11.50
2019-05-23T22:49:04.668Z,11.50
2019-05-23T22:51:52.753Z,11.50
2019-05-23T22:54:41.021Z,11.50
2019-05-23T22:57:11.643Z,11.40
2019-05-23T23:00:00.114Z,11.40
2019-05-23T23:02:30.792Z,11.30
2019-05-23T23:05:01.300Z,11.20
2019-05-23T23:07:32.012Z,11.20
2019-05-23T23:10:02.572Z,11.10
2019-05-23T23:12:34.300Z,11.00
2019-05-23T23:15:05.122Z,11.00
2019-05-23T23:17:35.600Z,10.90
2019-05-23T23:20:07.090Z,11.00
2019-05-23T23:22:37.708Z,10.90
2019-05-23T23:25:08.341Z,10.90
2019-05-23T23:27:38.998Z,10.90
2019-05-23T23:30:11.394Z,10.80
2019-05-23T23:32:43.257Z,10.80
2019-05-23T23:35:13.846Z,10.80
2019-05-23T23:37:44.734Z,10.70
2019-05-23T23:40:15.548Z,10.70
2019-05-23T23:43:03.430Z,10.70
2019-05-23T23:45:52.001Z,10.60
2019-05-23T23:48:40.188Z,10.60
2019-05-23T23:51:28.700Z,10.60
2019-05-23T23:54:16.824Z,10.50
2019-05-23T23:57:05.140Z,10.50
2019-05-23T23:59:34.602Z,10.60
